• Join FlightAware (Why Join?)
  • Login
  • US Flag 
07:48PM EST


 

Airport Tracker/Info


-or-


 

Live Flight TrackerFlight Track Log ✈ UPS617 ✈ 03-May-2012 ✈ KPIA - KSDF

Flight Track Log - Related Links

Times and Time Zones

All times are in EDT time to prevent confusion due to time zone crossing. See the UPS617 flight status page for this flight to view local times or setup timezone preferences in your user account.

Time Position Orientation Groundspeed Altitude Reporting Facility
EDT Latitude Longitude Course Direction KTS MPH feet Rate Location/Type
12:09AM 40.6117 -89.5797 122° Southeast 209 241 5,100  Level Chicago Center
12:10AM 40.5703 -89.4922 121° Southeast 246 283 8,200 2,940 Climbing Chicago Center
12:11AM 40.5264 -89.3964 122° Southeast 288 331 11,000 2,100 Climbing Chicago Center
12:12AM 40.4722 -89.2817 121° Southeast 330 380 12,500 2,100 Climbing Chicago Center
12:13AM 40.4139 -89.1564 121° Southeast 378 435 15,300 2,700 Climbing Chicago Center
12:14AM 40.3508 -89.0203 122° Southeast 407 468 17,900 2,400 Climbing Chicago Center
12:15AM 40.2858 -88.8844 122° Southeast 429 494 20,100 2,100 Climbing Chicago Center
12:16AM 40.2183 -88.7408 122° Southeast 449 517 22,100 2,160 Climbing Chicago Center
12:17AM 40.1489 -88.5975 123° Southeast 460 529 24,500 660 Climbing Chicago Center
12:21AM 39.9089 -88.1150 123° Southeast 485 558 25,000 60 Climbing Indianapolis Center
12:22AM 39.8353 -87.9669 121° Southeast 485 558 25,000  Level Indianapolis Center
12:23AM 39.7678 -87.8222 123° Southeast 479 551 25,000  Level Indianapolis Center
12:24AM 39.7017 -87.6886 126° Southeast 479 551 25,000  Level Indianapolis Center
12:25AM 39.6289 -87.5578 133° Southeast 465 535 25,000  Level Indianapolis Center
12:26AM 39.5453 -87.4425 133° Southeast 444 511 25,000  Level Indianapolis Center
12:27AM 39.4633 -87.3306 131° Southeast 433 498 25,000  Level Indianapolis Center
12:28AM 39.3794 -87.2078 134° Southeast 441 507 25,000 -120 Level Indianapolis Center
12:29AM 39.2914 -87.0881 133° Southeast 454 522 24,800 -1,260 Descending Indianapolis Center
12:30AM 39.2053 -86.9683 132° Southeast 449 517 22,500 -2,280 Descending Indianapolis Center
12:31AM 39.1250 -86.8550 134° Southeast 444 511 20,300 -2,280 Descending Indianapolis Center
12:32AM 39.0447 -86.7469 133° Southeast 425 489 18,000 -2,220 Descending Indianapolis Center
12:33AM 38.9683 -86.6419 135° Southeast 413 475 15,900 -2,100 Descending Indianapolis Center
12:34AM 38.8875 -86.5372 133° Southeast 408 470 13,800 -2,100 Descending Indianapolis Center
12:35AM 38.8189 -86.4436 134° Southeast 383 441 11,800 -1,560 Descending Indianapolis Center
12:36AM 38.7503 -86.3531 135° Southeast 368 423 10,700 -960 Descending Indianapolis Center
12:37AM 38.6894 -86.2761 141° Southeast 338 389 9,900 -1,200 Descending Indianapolis Center
12:38AM 38.6222 -86.2072 154° Southeast 320 368 8,400 -1,380 Descending Indianapolis Center
12:39AM 38.5461 -86.1592 164° South 307 353 7,200 -1,200 Descending Indianapolis Center
12:40AM 38.4736 -86.1328 133° Southeast 279 321 6,100 -1,200 Descending Indianapolis Center
12:40AM 38.4433 -86.0914 74° East 281 323 5,300 -900 Descending FAA TRACON SMA TRACON (SMA)
12:41AM 38.4578 -86.0275 64° Northeast 283 326 5,000 -240 Descending FAA TRACON SMA TRACON (SMA)
12:42AM 38.4758 -85.9803 56° Northeast 241 277 5,000 -480 Level FAA TRACON SMA TRACON (SMA)
12:42AM 38.4989 -85.9361 55° Northeast 219 252 4,400 -900 Descending FAA TRACON SMA TRACON (SMA)
12:43AM 38.5233 -85.8917 108° East 221 254 3,800 -840 Descending FAA TRACON SMA TRACON (SMA)
12:44AM 38.5142 -85.8561 168° South 210 242 3,300 -660 Descending FAA TRACON SMA TRACON (SMA)
12:44AM 38.4811 -85.8469 167° South 173 199 3,000 -240 Descending FAA TRACON SMA TRACON (SMA)
12:45AM 38.4483 -85.8369 164° South 175 201 3,000  Level FAA TRACON SMA TRACON (SMA)
12:46AM 38.4194 -85.8261 165° South 176 203 3,000  Level FAA TRACON SMA TRACON (SMA)
12:46AM 38.3869 -85.8150 166° South 175 201 3,000  Level FAA TRACON SMA TRACON (SMA)
12:47AM 38.3561 -85.8053 165° South 163 188 3,000  Level FAA TRACON SMA TRACON (SMA)
12:48AM 38.3303 -85.7964 166° South 154 177 3,000 -240 Level FAA TRACON SMA TRACON (SMA)
12:48AM 38.3017 -85.7872 165° South 151 174 2,700 -540 Descending FAA TRACON SMA TRACON (SMA)
12:49AM 38.2756 -85.7786 165° South 141 162 2,300 -600 Descending FAA TRACON SMA TRACON (SMA)
12:50AM 38.2531 -85.7708 166° South 134 154 1,900 -720 Descending FAA TRACON SMA TRACON (SMA)
12:50AM 38.2292 -85.7631 165° South 128 147 1,400 -720 Descending FAA TRACON SMA TRACON (SMA)
12:51AM 38.2061 -85.7553 166° South 125 144 1,000 -660 Descending FAA TRACON SMA TRACON (SMA)
12:52AM 38.1900 -85.7503 166° South 128 147 600 -660 Descending FAA TRACON SMA TRACON (SMA)